Time;durP1;ratioP1;P1;durP2;ratioP2;P2;SDS_P1;SDS_P2;PMS_P1;PMS_P2;Temp;Humidity;BMP_temperature;BMP_pressure;BME280_temperature;BME280_humidity;BME280_pressure;Samples;Min_cycle;Max_cycle;Signal;HPM_P1;HPM_P2
2022/11/09 00:01:43;;;;;;;;;;;;;;;3.33;100.00;97984.64;107668;1264;69811;-73
2022/11/09 00:04:13;;;;;;;;;;;;;;;3.30;100.00;97985.08;107613;1268;69071;-72
2022/11/09 00:06:43;;;;;;;;;;;;;;;3.28;100.00;97984.30;107594;1265;60562;-72
2022/11/09 00:09:12;;;;;;;;;;;;;;;3.22;100.00;97985.69;107651;1268;60575;-72
2022/11/09 00:11:42;;;;;;;;;;;;;;;3.14;100.00;97986.83;107689;1269;71351;-72
2022/11/09 00:14:12;;;;;;;;;;;;;;;3.07;100.00;97988.29;107646;1268;69826;-72
2022/11/09 00:16:42;;;;;;;;;;;;;;;3.03;100.00;97987.36;107623;1264;69128;-72
2022/11/09 00:19:14;;;;;;;;;;;;;;;3.01;100.00;97986.41;107669;1265;60572;-72
2022/11/09 00:21:44;;;;;;;;;;;;;;;2.98;100.00;97989.60;107684;1268;60515;-72
2022/11/09 00:24:13;;;;;;;;;;;;;;;2.95;100.00;97988.15;107667;1264;72679;-72
2022/11/09 00:26:43;;;;;;;;;;;;;;;2.93;100.00;97986.52;107648;1268;68270;-75
2022/11/09 00:29:13;;;;;;;;;;;;;;;2.89;100.00;97983.35;107641;1268;69314;-72
2022/11/09 00:31:43;;;;;;;;;;;;;;;2.88;100.00;97984.63;107610;1265;60574;-72
2022/11/09 00:34:12;;;;;;;;;;;;;;;2.85;100.00;97983.31;107638;1264;60941;-74
2022/11/09 00:36:43;;;;;;;;;;;;;;;2.84;100.00;97985.61;107646;1267;72159;-74
2022/11/09 00:39:13;;;;;;;;;;;;;;;2.84;100.00;97982.52;107669;1264;69278;-74
2022/11/09 00:41:43;;;;;;;;;;;;;;;2.86;100.00;97981.40;107620;1268;68179;-73
2022/11/09 00:44:12;;;;;;;;;;;;;;;2.87;100.00;97978.12;107683;1265;60965;-73
2022/11/09 00:46:42;;;;;;;;;;;;;;;2.87;100.00;97975.17;107709;1265;60926;-73
2022/11/09 00:49:12;;;;;;;;;;;;;;;2.87;100.00;97970.19;107636;1268;71360;-74
2022/11/09 00:51:42;;;;;;;;;;;;;;;2.85;100.00;97970.21;107611;1266;68810;-75
2022/11/09 00:54:12;;;;;;;;;;;;;;;2.86;100.00;97966.41;107690;1264;70004;-74
2022/11/09 00:56:41;;;;;;;;;;;;;;;2.88;100.00;97968.44;107677;1268;60532;-74
2022/11/09 00:59:13;;;;;;;;;;;;;;;2.89;100.00;97967.34;107666;1269;60991;-73
2022/11/09 01:01:43;;;;;;;;;;;;;;;2.90;100.00;97963.87;107671;1264;72629;-74
2022/11/09 01:04:12;;;;;;;;;;;;;;;2.91;100.00;97964.53;107644;1269;69674;-74
2022/11/09 01:06:42;;;;;;;;;;;;;;;2.92;100.00;97961.08;107629;1269;69619;-74
2022/11/09 01:09:12;;;;;;;;;;;;;;;2.92;100.00;97964.69;107654;1268;60535;-74
2022/11/09 01:11:42;;;;;;;;;;;;;;;2.92;100.00;97964.84;107674;1268;60579;-74
2022/11/09 01:14:11;;;;;;;;;;;;;;;2.92;100.00;97962.25;107672;1266;70624;-74
2022/11/09 01:16:45;;;;;;;;;;;;;;;2.92;100.00;97962.10;107682;1267;68260;-73
2022/11/09 01:19:15;;;;;;;;;;;;;;;2.92;100.00;97964.69;107650;1269;68491;-73
2022/11/09 01:21:45;;;;;;;;;;;;;;;2.91;100.00;97961.77;107629;1269;60585;-74
2022/11/09 01:24:16;;;;;;;;;;;;;;;2.91;100.00;97966.27;107670;1268;60566;-74
2022/11/09 01:26:46;;;;;;;;;;;;;;;2.90;100.00;97963.55;107656;1267;71940;-74
2022/11/09 01:29:16;;;;;;;;;;;;;;;2.88;100.00;97960.48;107663;1268;69301;-74
2022/11/09 01:31:47;;;;;;;;;;;;;;;2.87;100.00;97961.77;107629;1264;68951;-74
2022/11/09 01:34:17;;;;;;;;;;;;;;;2.85;100.00;97961.27;107650;1264;60914;-74
2022/11/09 01:36:50;;;;;;;;;;;;;;;2.83;100.00;97960.84;107705;1264;60504;-74
2022/11/09 01:39:20;;;;;;;;;;;;;;;2.82;100.00;97956.76;107655;1268;71367;-74
2022/11/09 01:41:50;;;;;;;;;;;;;;;2.79;100.00;97952.54;107654;1269;69338;-74
2022/11/09 01:44:20;;;;;;;;;;;;;;;2.77;100.00;97951.39;107633;1268;69143;-74
2022/11/09 01:46:52;;;;;;;;;;;;;;;2.74;100.00;97949.95;107631;1264;60521;-73
2022/11/09 01:49:40;;;;;;;;;;;;;;;2.70;100.00;97950.25;107652;1265;60495;-74
2022/11/09 01:52:21;;;;;;;;;;;;;;;2.66;100.00;97950.92;107693;1268;70481;-74
2022/11/09 01:54:54;;;;;;;;;;;;;;;2.62;100.00;97948.61;107657;1268;67475;-74
2022/11/09 01:57:26;;;;;;;;;;;;;;;2.58;100.00;97944.10;107621;1268;69440;-74
2022/11/09 01:59:59;;;;;;;;;;;;;;;2.54;100.00;97943.54;107621;1264;60582;-73
2022/11/09 02:02:29;;;;;;;;;;;;;;;2.50;100.00;97946.39;107642;1268;60561;-73
2022/11/09 02:05:06;;;;;;;;;;;;;;;2.47;100.00;97944.80;107637;1264;72158;-73
2022/11/09 02:07:38;;;;;;;;;;;;;;;2.43;100.00;97945.07;107638;1268;69183;-74
2022/11/09 02:10:28;;;;;;;;;;;;;;;2.43;100.00;97947.52;107638;1266;68638;-74
2022/11/09 02:13:01;;;;;;;;;;;;;;;2.40;100.00;97949.31;107651;1268;60525;-74
2022/11/09 02:15:37;;;;;;;;;;;;;;;2.38;100.00;97949.71;107646;1268;60511;-73
2022/11/09 02:18:14;;;;;;;;;;;;;;;2.38;100.00;97948.87;107662;1264;72397;-74
2022/11/09 02:20:55;;;;;;;;;;;;;;;2.38;100.00;97949.91;107656;1268;69350;-75
2022/11/09 02:23:26;;;;;;;;;;;;;;;2.36;100.00;97953.58;107629;1271;68410;-73
2022/11/09 02:26:03;;;;;;;;;;;;;;;2.36;100.00;97952.04;107704;1267;60499;-73
2022/11/09 02:28:35;;;;;;;;;;;;;;;2.33;100.00;97954.02;107711;1259;60523;-73
2022/11/09 02:31:09;;;;;;;;;;;;;;;2.30;100.00;97954.63;107673;1268;71240;-74
2022/11/09 02:34:02;;;;;;;;;;;;;;;2.28;100.00;97958.98;107677;1265;69717;-73
2022/11/09 02:36:32;;;;;;;;;;;;;;;2.26;100.00;97960.40;107603;1266;69274;-73
2022/11/09 02:39:06;;;;;;;;;;;;;;;2.25;100.00;97958.02;107636;1270;60950;-73
2022/11/09 02:41:40;;;;;;;;;;;;;;;2.23;100.00;97959.64;107652;1268;60586;-72
2022/11/09 02:44:10;;;;;;;;;;;;;;;2.20;100.00;97955.79;107643;1270;72345;-73
2022/11/09 02:46:41;;;;;;;;;;;;;;;2.17;100.00;97955.88;107656;1270;69909;-73
2022/11/09 02:49:14;;;;;;;;;;;;;;;2.15;100.00;97959.73;107672;1269;69170;-73
2022/11/09 02:51:43;;;;;;;;;;;;;;;2.13;100.00;97955.15;107666;1264;60566;-72
2022/11/09 02:54:14;;;;;;;;;;;;;;;2.11;100.00;97954.52;107646;1266;60565;-72
2022/11/09 02:56:46;;;;;;;;;;;;;;;2.09;100.00;97957.17;107659;1265;71568;-73
2022/11/09 02:59:18;;;;;;;;;;;;;;;2.07;100.00;97954.80;107629;1267;68290;-73
2022/11/09 03:01:50;;;;;;;;;;;;;;;2.06;100.00;97954.67;107593;1268;67787;-73
2022/11/09 03:04:21;;;;;;;;;;;;;;;2.05;100.00;97955.74;107640;1267;60570;-73
2022/11/09 03:06:53;;;;;;;;;;;;;;;2.03;100.00;97958.36;107681;1268;60493;-72
2022/11/09 03:09:23;;;;;;;;;;;;;;;2.03;100.00;97957.50;107644;1261;72392;-75
2022/11/09 03:11:53;;;;;;;;;;;;;;;2.01;100.00;97955.15;107633;1268;69056;-73
2022/11/09 03:14:23;;;;;;;;;;;;;;;2.01;100.00;97956.02;107622;1265;69947;-73
2022/11/09 03:16:56;;;;;;;;;;;;;;;2.01;100.00;97955.51;107638;1270;60570;-73
2022/11/09 03:19:27;;;;;;;;;;;;;;;2.01;100.00;97961.18;107627;1268;60571;-73
2022/11/09 03:21:57;;;;;;;;;;;;;;;2.00;100.00;97962.43;107649;1271;71438;-72
2022/11/09 03:24:26;;;;;;;;;;;;;;;2.00;100.00;97962.42;107653;1268;69248;-73
2022/11/09 03:26:58;;;;;;;;;;;;;;;2.00;100.00;97964.29;107650;1268;69250;-73
2022/11/09 03:29:28;;;;;;;;;;;;;;;1.99;100.00;97958.14;107684;1266;60554;-71
2022/11/09 03:31:58;;;;;;;;;;;;;;;1.99;100.00;97966.40;107659;1265;60591;-73
2022/11/09 03:34:29;;;;;;;;;;;;;;;1.99;100.00;97968.11;107667;1271;72028;-73
2022/11/09 03:36:59;;;;;;;;;;;;;;;1.99;100.00;97967.42;107718;1264;68070;-74
2022/11/09 03:39:30;;;;;;;;;;;;;;;2.01;100.00;97965.48;107642;1271;69655;-75
2022/11/09 03:42:00;;;;;;;;;;;;;;;2.01;100.00;97963.38;107682;1268;60568;-74
2022/11/09 03:44:29;;;;;;;;;;;;;;;2.03;100.00;97964.39;107643;1268;60555;-74
2022/11/09 03:46:59;;;;;;;;;;;;;;;2.03;100.00;97962.48;107672;1264;72083;-74
2022/11/09 03:49:29;;;;;;;;;;;;;;;2.06;100.00;97964.29;107666;1268;69414;-74
2022/11/09 03:51:58;;;;;;;;;;;;;;;2.06;100.00;97961.70;107663;1268;69306;-74
2022/11/09 03:54:27;;;;;;;;;;;;;;;2.05;100.00;97960.04;107651;1268;60570;-74
2022/11/09 03:56:58;;;;;;;;;;;;;;;2.04;100.00;97959.70;107679;1268;60518;-74
2022/11/09 03:59:27;;;;;;;;;;;;;;;2.06;100.00;97960.85;107655;1268;71286;-74
2022/11/09 04:01:58;;;;;;;;;;;;;;;2.08;100.00;97960.45;107675;1268;67835;-75
2022/11/09 04:04:27;;;;;;;;;;;;;;;2.11;100.00;97963.46;107638;1265;69164;-74
2022/11/09 04:06:56;;;;;;;;;;;;;;;2.13;100.00;97961.52;107626;1268;60511;-73
2022/11/09 04:09:26;;;;;;;;;;;;;;;2.14;100.00;97960.61;107645;1265;60502;-73
2022/11/09 04:11:56;;;;;;;;;;;;;;;2.16;100.00;97964.84;107600;1265;72334;-74
2022/11/09 04:14:26;;;;;;;;;;;;;;;2.19;100.00;97965.45;107647;1268;69224;-73
2022/11/09 04:16:55;;;;;;;;;;;;;;;2.20;100.00;97960.78;107638;1268;68472;-74
2022/11/09 04:19:24;;;;;;;;;;;;;;;2.22;100.00;97961.58;107661;1264;60570;-74
2022/11/09 04:21:53;;;;;;;;;;;;;;;2.24;100.00;97962.03;107644;1268;60485;-74
2022/11/09 04:24:22;;;;;;;;;;;;;;;2.25;100.00;97960.25;107670;1265;72192;-74
2022/11/09 04:26:51;;;;;;;;;;;;;;;2.28;100.00;97962.58;107672;1265;68355;-74
2022/11/09 04:29:20;;;;;;;;;;;;;;;2.30;100.00;97965.63;107647;1265;68469;-74
2022/11/09 04:31:50;;;;;;;;;;;;;;;2.30;100.00;97965.44;107640;1264;60535;-73
2022/11/09 04:34:19;;;;;;;;;;;;;;;2.32;100.00;97963.70;107640;1265;60969;-74
2022/11/09 04:36:48;;;;;;;;;;;;;;;2.32;100.00;97963.02;107653;1269;71190;-74
2022/11/09 04:39:17;;;;;;;;;;;;;;;2.32;100.00;97961.96;107638;1268;69205;-74
2022/11/09 04:41:46;;;;;;;;;;;;;;;2.32;100.00;97960.59;107631;1268;69230;-73
2022/11/09 04:44:16;;;;;;;;;;;;;;;2.31;100.00;97964.21;107628;1268;60546;-74
2022/11/09 04:46:45;;;;;;;;;;;;;;;2.29;100.00;97965.65;107652;1268;60463;-74
2022/11/09 04:49:14;;;;;;;;;;;;;;;2.27;100.00;97967.61;107681;1268;71530;-74
2022/11/09 04:51:42;;;;;;;;;;;;;;;2.26;100.00;97966.61;107632;1269;69351;-74
2022/11/09 04:54:12;;;;;;;;;;;;;;;2.27;100.00;97969.33;107633;1268;68493;-74
2022/11/09 04:56:41;;;;;;;;;;;;;;;2.28;100.00;97971.35;107637;1264;60543;-74
2022/11/09 04:59:10;;;;;;;;;;;;;;;2.30;100.00;97971.99;107621;1265;60515;-74
2022/11/09 05:01:39;;;;;;;;;;;;;;;2.31;100.00;97972.13;107648;1268;72181;-74
2022/11/09 05:04:08;;;;;;;;;;;;;;;2.31;100.00;97974.54;107664;1265;68386;-74
2022/11/09 05:06:37;;;;;;;;;;;;;;;2.32;100.00;97976.58;107613;1268;69142;-74
2022/11/09 05:09:06;;;;;;;;;;;;;;;2.34;100.00;97981.66;107662;1269;60911;-74
2022/11/09 05:11:35;;;;;;;;;;;;;;;2.35;100.00;97981.13;107613;1269;60525;-74
2022/11/09 05:14:04;;;;;;;;;;;;;;;2.37;100.00;97982.81;107672;1268;72143;-74
2022/11/09 05:16:33;;;;;;;;;;;;;;;2.41;100.00;97988.00;107641;1268;68460;-74
2022/11/09 05:19:02;;;;;;;;;;;;;;;2.43;100.00;97988.45;107619;1269;69277;-75
2022/11/09 05:21:31;;;;;;;;;;;;;;;2.44;100.00;97986.87;107644;1268;60527;-74
2022/11/09 05:24:01;;;;;;;;;;;;;;;2.46;100.00;97989.75;107657;1269;60555;-75
2022/11/09 05:26:32;;;;;;;;;;;;;;;2.47;100.00;97992.27;107636;1268;71279;-74
2022/11/09 05:29:02;;;;;;;;;;;;;;;2.49;100.00;97992.55;107706;1269;69233;-74
2022/11/09 05:31:31;;;;;;;;;;;;;;;2.52;100.00;97997.13;107674;1264;68420;-75
2022/11/09 05:34:00;;;;;;;;;;;;;;;2.53;100.00;97999.13;107684;1269;61005;-75
2022/11/09 05:36:29;;;;;;;;;;;;;;;2.58;100.00;98001.59;107643;1269;60500;-74
2022/11/09 05:38:59;;;;;;;;;;;;;;;2.63;100.00;98004.71;107676;1266;72858;-75
2022/11/09 05:41:27;;;;;;;;;;;;;;;2.66;100.00;98007.17;107673;1268;69660;-75
2022/11/09 05:43:56;;;;;;;;;;;;;;;2.70;100.00;98008.77;107644;1268;69358;-74
2022/11/09 05:46:25;;;;;;;;;;;;;;;2.73;100.00;98011.26;107648;1268;60470;-74
2022/11/09 05:48:54;;;;;;;;;;;;;;;2.76;100.00;98013.38;107638;1269;60589;-74
2022/11/09 05:51:23;;;;;;;;;;;;;;;2.80;100.00;98017.92;107629;1268;72805;-74
2022/11/09 05:53:51;;;;;;;;;;;;;;;2.82;100.00;98019.23;107639;1268;69067;-75
2022/11/09 05:56:21;;;;;;;;;;;;;;;2.86;100.00;98025.29;107617;1266;69709;-75
2022/11/09 05:58:49;;;;;;;;;;;;;;;2.91;100.00;98024.10;107658;1268;60544;-74
2022/11/09 06:01:19;;;;;;;;;;;;;;;2.94;100.00;98025.02;107606;1266;60496;-74
2022/11/09 06:03:48;;;;;;;;;;;;;;;3.02;100.00;98025.65;107635;1268;72634;-74
2022/11/09 06:06:17;;;;;;;;;;;;;;;3.19;100.00;98034.04;107649;1268;69914;-74
2022/11/09 06:08:45;;;;;;;;;;;;;;;3.26;100.00;98032.42;107616;1273;69252;-74
2022/11/09 06:11:14;;;;;;;;;;;;;;;3.35;100.00;98032.80;107618;1268;60591;-75
2022/11/09 06:13:51;;;;;;;;;;;;;;;3.41;100.00;98032.59;107630;1265;60463;-75
2022/11/09 06:16:20;;;;;;;;;;;;;;;3.47;100.00;98032.40;107669;1268;71760;-74
2022/11/09 06:18:49;;;;;;;;;;;;;;;3.46;100.00;98032.95;107693;1268;69109;-75
2022/11/09 06:21:18;;;;;;;;;;;;;;;3.48;100.00;98035.99;107676;1268;69327;-76
2022/11/09 06:23:47;;;;;;;;;;;;;;;3.48;100.00;98034.79;107646;1268;60576;-75
2022/11/09 06:26:15;;;;;;;;;;;;;;;3.48;100.00;98037.86;107650;1269;60486;-75
2022/11/09 06:28:44;;;;;;;;;;;;;;;3.49;100.00;98038.55;107653;1268;72221;-74
2022/11/09 06:31:14;;;;;;;;;;;;;;;3.51;100.00;98037.77;107679;1268;69194;-75
2022/11/09 06:33:43;;;;;;;;;;;;;;;3.52;100.00;98037.90;107646;1269;68313;-74
2022/11/09 06:36:14;;;;;;;;;;;;;;;3.55;100.00;98036.95;107657;1269;60530;-75
2022/11/09 06:38:42;;;;;;;;;;;;;;;3.57;100.00;98038.40;107630;1268;60571;-75
2022/11/09 06:41:10;;;;;;;;;;;;;;;3.57;100.00;98040.48;107652;1268;71599;-75
2022/11/09 06:43:39;;;;;;;;;;;;;;;3.59;100.00;98037.32;107667;1268;68664;-75
2022/11/09 06:46:16;;;;;;;;;;;;;;;3.66;100.00;98039.86;107623;1268;69979;-74
2022/11/09 06:48:45;;;;;;;;;;;;;;;3.72;100.00;98041.01;107650;1268;60538;-74
2022/11/09 06:51:20;;;;;;;;;;;;;;;3.80;100.00;98043.30;107657;1269;60512;-74
2022/11/09 06:53:49;;;;;;;;;;;;;;;3.86;100.00;98043.62;107606;1269;71456;-74
2022/11/09 06:56:18;;;;;;;;;;;;;;;3.89;100.00;98045.08;107657;1268;68256;-74
2022/11/09 06:58:47;;;;;;;;;;;;;;;3.92;100.00;98039.08;107644;1268;69167;-74
2022/11/09 07:01:17;;;;;;;;;;;;;;;4.02;100.00;98038.03;107635;1270;60563;-74
2022/11/09 07:03:46;;;;;;;;;;;;;;;4.07;100.00;98035.25;107632;1268;60560;-74
2022/11/09 07:06:14;;;;;;;;;;;;;;;4.17;100.00;98034.38;107676;1268;71394;-75
2022/11/09 07:08:43;;;;;;;;;;;;;;;4.27;100.00;98028.48;107641;1265;69587;-75
2022/11/09 07:11:14;;;;;;;;;;;;;;;4.39;100.00;98019.75;107670;1269;68710;-75
2022/11/09 07:13:43;;;;;;;;;;;;;;;4.35;100.00;98018.67;107642;1265;60577;-75
2022/11/09 07:16:16;;;;;;;;;;;;;;;4.36;100.00;98020.03;107649;1268;60535;-75
2022/11/09 07:18:45;;;;;;;;;;;;;;;4.45;100.00;98018.66;107672;1264;71675;-75
2022/11/09 07:21:14;;;;;;;;;;;;;;;4.54;100.00;98015.16;107655;1266;68405;-74
2022/11/09 07:23:42;;;;;;;;;;;;;;;4.65;100.00;98016.33;107638;1268;69241;-75
2022/11/09 07:26:11;;;;;;;;;;;;;;;4.73;100.00;98017.21;107668;1269;60593;-75
2022/11/09 07:28:40;;;;;;;;;;;;;;;4.82;100.00;98016.66;107365;1268;410350;-75
2022/11/09 07:31:09;;;;;;;;;;;;;;;4.78;100.00;98019.06;107613;1268;72074;-75
2022/11/09 07:33:39;;;;;;;;;;;;;;;4.92;100.00;98024.40;107682;1268;69138;-75
2022/11/09 07:36:08;;;;;;;;;;;;;;;4.99;100.00;98026.69;107620;1265;69874;-75
2022/11/09 07:38:36;;;;;;;;;;;;;;;5.04;100.00;98021.65;107625;1269;60505;-75
2022/11/09 07:41:05;;;;;;;;;;;;;;;5.11;100.00;98020.00;107617;1269;60484;-76
2022/11/09 07:43:34;;;;;;;;;;;;;;;5.16;100.00;98021.34;107660;1268;72759;-75
2022/11/09 07:46:04;;;;;;;;;;;;;;;5.23;100.00;98018.97;107663;1268;70159;-76
2022/11/09 07:48:33;;;;;;;;;;;;;;;5.34;100.00;98023.20;107606;1267;69282;-76
2022/11/09 07:51:02;;;;;;;;;;;;;;;5.44;100.00;98026.93;107649;1269;60512;-76
2022/11/09 07:53:31;;;;;;;;;;;;;;;5.51;100.00;98024.21;107620;1269;60631;-74
2022/11/09 07:56:01;;;;;;;;;;;;;;;5.61;100.00;98028.28;107633;1269;72708;-77
2022/11/09 07:58:30;;;;;;;;;;;;;;;5.68;100.00;98025.02;107645;1269;68462;-75
2022/11/09 08:00:59;;;;;;;;;;;;;;;5.69;100.00;98024.64;107640;1269;68595;-75
2022/11/09 08:03:27;;;;;;;;;;;;;;;5.74;100.00;98022.02;107622;1268;60540;-76
2022/11/09 08:05:57;;;;;;;;;;;;;;;5.85;100.00;98017.86;107606;1268;60860;-74
2022/11/09 08:08:25;;;;;;;;;;;;;;;6.02;100.00;98018.55;107648;1268;72036;-75
2022/11/09 08:10:55;;;;;;;;;;;;;;;6.08;100.00;98017.21;107619;1269;69068;-75
2022/11/09 08:13:24;;;;;;;;;;;;;;;6.17;99.97;98018.91;107653;1268;68625;-75
2022/11/09 08:15:53;;;;;;;;;;;;;;;6.27;100.00;98015.52;107639;1269;60918;-75
2022/11/09 08:18:21;;;;;;;;;;;;;;;6.26;100.00;98014.83;107677;1265;60907;-76
2022/11/09 08:20:50;;;;;;;;;;;;;;;6.37;100.00;98015.41;107658;1268;71101;-75
2022/11/09 08:23:20;;;;;;;;;;;;;;;6.28;99.49;98013.23;107660;1264;68508;-74
2022/11/09 08:25:49;;;;;;;;;;;;;;;6.33;99.10;98015.58;107644;1269;69187;-76
2022/11/09 08:28:18;;;;;;;;;;;;;;;6.43;99.92;98016.14;107695;1268;60589;-75
2022/11/09 08:31:00;;;;;;;;;;;;;;;6.44;99.45;98015.56;107721;1265;60545;-76
2022/11/09 08:33:29;;;;;;;;;;;;;;;6.44;99.54;98015.43;107680;1269;72150;-76
2022/11/09 08:35:58;;;;;;;;;;;;;;;6.55;99.80;98013.82;107613;1264;68450;-75
2022/11/09 08:38:26;;;;;;;;;;;;;;;6.58;99.48;98013.88;107646;1268;69279;-75
2022/11/09 08:40:56;;;;;;;;;;;;;;;6.49;99.35;98016.19;107636;1269;60570;-75
2022/11/09 08:43:24;;;;;;;;;;;;;;;6.58;99.21;98020.45;107649;1269;60525;-75
2022/11/09 08:45:53;;;;;;;;;;;;;;;6.69;99.22;98019.44;107652;1268;71817;-75
2022/11/09 08:48:22;;;;;;;;;;;;;;;6.59;99.36;98016.95;107679;1269;69267;-75
2022/11/09 08:50:52;;;;;;;;;;;;;;;6.73;99.64;98018.04;107650;1266;70227;-75
2022/11/09 08:53:21;;;;;;;;;;;;;;;6.82;99.16;98019.15;107636;1269;60571;-75
2022/11/09 08:55:50;;;;;;;;;;;;;;;6.83;98.82;98019.09;107660;1269;60547;-75
2022/11/09 08:58:19;;;;;;;;;;;;;;;6.85;99.15;98016.77;107674;1268;71510;-76
2022/11/09 09:00:48;;;;;;;;;;;;;;;6.88;98.44;98017.49;107704;1268;68291;-76
2022/11/09 09:03:17;;;;;;;;;;;;;;;6.86;99.60;98013.23;107690;1266;69756;-76
2022/11/09 09:05:45;;;;;;;;;;;;;;;6.90;99.69;98016.86;107643;1268;60528;-76
2022/11/09 09:08:14;;;;;;;;;;;;;;;6.85;99.43;98015.71;107657;1270;60537;-76
2022/11/09 09:10:43;;;;;;;;;;;;;;;6.86;99.79;98020.16;107634;1264;72033;-76
2022/11/09 09:13:11;;;;;;;;;;;;;;;6.95;99.87;98019.17;107663;1264;69933;-76
2022/11/09 09:15:40;;;;;;;;;;;;;;;7.16;100.00;98017.32;107615;1269;70006;-76
2022/11/09 09:18:08;;;;;;;;;;;;;;;7.24;99.77;98017.29;107648;1269;60611;-76
2022/11/09 09:20:37;;;;;;;;;;;;;;;7.29;99.84;98017.21;107639;1271;60513;-75
2022/11/09 09:23:05;;;;;;;;;;;;;;;7.35;99.11;98016.74;107664;1267;72161;-76
2022/11/09 09:25:34;;;;;;;;;;;;;;;7.33;99.07;98015.77;107695;1269;69807;-76
2022/11/09 09:28:03;;;;;;;;;;;;;;;7.45;99.04;98012.93;107633;1269;68763;-76
2022/11/09 09:30:32;;;;;;;;;;;;;;;7.53;98.90;98012.17;107660;1264;60573;-76
2022/11/09 09:33:01;;;;;;;;;;;;;;;7.55;98.38;98011.88;107664;1266;60480;-76
2022/11/09 09:35:32;;;;;;;;;;;;;;;7.61;98.15;98008.45;107641;1269;72946;-75
2022/11/09 09:38:00;;;;;;;;;;;;;;;7.63;97.41;98008.00;107669;1268;68302;-76
2022/11/09 09:40:55;;;;;;;;;;;;;;;7.55;97.34;98004.77;107658;1268;69241;-76
2022/11/09 09:43:36;;;;;;;;;;;;;;;7.50;97.22;98000.37;107638;1266;60578;-76
2022/11/09 09:46:22;;;;;;;;;;;;;;;7.45;97.79;98001.86;107637;1269;60536;-76
2022/11/09 09:48:54;;;;;;;;;;;;;;;7.42;99.46;97995.56;107663;1264;72150;-76
2022/11/09 09:51:26;;;;;;;;;;;;;;;7.52;99.10;97994.03;107663;1269;69698;-75
2022/11/09 09:53:58;;;;;;;;;;;;;;;7.43;99.20;97991.38;107640;1268;69276;-75
2022/11/09 09:56:31;;;;;;;;;;;;;;;7.60;98.39;97988.75;107635;1268;60554;-75
2022/11/09 09:59:02;;;;;;;;;;;;;;;7.89;98.85;97984.79;107647;1260;60919;-75
2022/11/09 10:01:38;;;;;;;;;;;;;;;8.24;98.34;97976.52;107648;1269;72433;-75
2022/11/09 10:04:16;;;;;;;;;;;;;;;8.38;96.17;97980.42;107670;1268;69401;-76
2022/11/09 10:06:47;;;;;;;;;;;;;;;8.43;95.40;97977.91;107618;1270;69267;-75
2022/11/09 10:09:22;;;;;;;;;;;;;;;8.45;94.81;97976.58;107651;1269;60543;-76
2022/11/09 10:12:00;;;;;;;;;;;;;;;8.51;93.97;97973.67;107650;1268;60445;-75
2022/11/09 10:14:44;;;;;;;;;;;;;;;8.42;94.43;97972.93;107647;1268;71690;-75
2022/11/09 10:17:13;;;;;;;;;;;;;;;8.51;93.96;97973.65;107663;1269;69059;-76
2022/11/09 10:19:44;;;;;;;;;;;;;;;8.59;94.02;97972.36;107650;1269;68775;-75
2022/11/09 10:22:25;;;;;;;;;;;;;;;8.69;93.74;97973.38;107607;1269;60674;-75
2022/11/09 10:24:59;;;;;;;;;;;;;;;8.57;94.42;97970.56;107651;1269;60468;-75
2022/11/09 10:27:54;;;;;;;;;;;;;;;8.50;94.63;97966.58;107614;1269;72886;-75
2022/11/09 10:30:23;;;;;;;;;;;;;;;8.43;95.60;97961.27;107643;1268;67254;-75
2022/11/09 10:32:58;;;;;;;;;;;;;;;8.46;95.99;97958.98;107644;1269;69175;-75
2022/11/09 10:35:43;;;;;;;;;;;;;;;8.62;94.81;97962.60;107631;1269;60513;-75
2022/11/09 10:38:20;;;;;;;;;;;;;;;8.53;94.68;97959.13;107660;1268;60946;-75
2022/11/09 10:41:15;;;;;;;;;;;;;;;8.79;94.35;97952.27;107600;1268;71990;-75
2022/11/09 10:44:03;;;;;;;;;;;;;;;9.09;92.83;97950.38;107604;1268;69837;-75
2022/11/09 10:47:10;;;;;;;;;;;;;;;9.19;93.05;97948.73;107574;1269;68614;-76
2022/11/09 10:50:21;;;;;;;;;;;;;;;9.55;91.85;97935.85;107586;1266;60554;-73
2022/11/09 10:53:17;;;;;;;;;;;;;;;9.72;90.54;97935.00;107637;1268;60511;-74
2022/11/09 10:56:15;;;;;;;;;;;;;;;10.05;89.94;97927.38;107593;1269;72045;-74
2022/11/09 10:59:25;;;;;;;;;;;;;;;10.30;88.77;97925.80;107600;1269;68713;-76
2022/11/09 11:02:21;;;;;;;;;;;;;;;10.57;87.58;97923.56;107602;1259;68956;-74
2022/11/09 11:05:11;;;;;;;;;;;;;;;10.57;84.45;97918.83;107623;1269;60532;-75
2022/11/09 11:08:10;;;;;;;;;;;;;;;10.69;85.96;97917.55;107651;1269;60475;-76
2022/11/09 11:11:07;;;;;;;;;;;;;;;10.66;84.53;97915.80;107583;1269;71644;-75
2022/11/09 11:14:17;;;;;;;;;;;;;;;10.40;84.73;97913.52;107678;1268;69871;-75
2022/11/09 11:17:21;;;;;;;;;;;;;;;10.24;85.29;97916.63;107616;1269;69052;-74
2022/11/09 11:20:27;;;;;;;;;;;;;;;10.37;85.52;97910.58;107615;1264;60828;-75
2022/11/09 11:23:15;;;;;;;;;;;;;;;10.53;84.86;97912.16;107625;1273;60434;-75
2022/11/09 11:26:11;;;;;;;;;;;;;;;11.01;83.87;97907.08;107661;1273;72898;-74
2022/11/09 11:29:00;;;;;;;;;;;;;;;11.75;81.03;97902.77;107700;1269;69159;-74
2022/11/09 11:31:48;;;;;;;;;;;;;;;12.29;79.28;97899.79;107641;1266;69904;-76
2022/11/09 11:34:36;;;;;;;;;;;;;;;12.46;76.02;97899.63;107643;1266;60602;-75
2022/11/09 11:37:52;;;;;;;;;;;;;;;12.47;75.34;97895.37;107635;1268;60505;-74
2022/11/09 11:40:45;;;;;;;;;;;;;;;13.43;72.92;97894.67;107678;1269;72977;-75
2022/11/09 11:43:52;;;;;;;;;;;;;;;14.17;68.04;97896.05;107673;1269;68550;-76
2022/11/09 11:46:47;;;;;;;;;;;;;;;14.65;67.30;97893.78;107642;1270;69272;-75
2022/11/09 11:49:57;;;;;;;;;;;;;;;14.97;65.87;97890.13;107641;1269;60555;-75
2022/11/09 11:53:03;;;;;;;;;;;;;;;15.53;62.63;97885.23;107639;1270;60493;-75
2022/11/09 11:56:08;;;;;;;;;;;;;;;15.95;60.47;97882.84;107630;1270;71525;-75
2022/11/09 11:58:56;;;;;;;;;;;;;;;16.98;58.40;97886.67;107634;1269;69804;-75
2022/11/09 12:02:02;;;;;;;;;;;;;;;17.79;55.67;97879.17;107638;1269;69486;-75
2022/11/09 12:05:14;;;;;;;;;;;;;;;18.30;55.17;97874.23;107605;1270;60561;-75
2022/11/09 12:08:16;;;;;;;;;;;;;;;18.88;53.07;97871.72;107641;1270;60475;-75
2022/11/09 12:11:13;;;;;;;;;;;;;;;19.39;54.05;97869.27;107619;1270;72806;-74
2022/11/09 12:14:12;;;;;;;;;;;;;;;20.11;49.77;97864.17;107619;1269;68976;-75
2022/11/09 12:17:11;;;;;;;;;;;;;;;19.78;49.20;97861.91;107613;1270;68772;-74
2022/11/09 12:20:20;;;;;;;;;;;;;;;19.95;48.86;97860.51;107639;1269;60842;-74
2022/11/09 12:23:19;;;;;;;;;;;;;;;19.83;49.27;97864.06;107656;1270;60544;-73
2022/11/09 12:26:33;;;;;;;;;;;;;;;19.51;48.98;97866.86;107619;1265;72624;-74
2022/11/09 12:29:22;;;;;;;;;;;;;;;18.43;50.92;97864.63;107557;1269;68663;-74
2022/11/09 12:32:09;;;;;;;;;;;;;;;18.80;50.19;97861.56;107608;1268;69163;-74
2022/11/09 12:35:17;;;;;;;;;;;;;;;17.40;53.29;97865.73;107620;1264;60577;-72
2022/11/09 12:38:19;;;;;;;;;;;;;;;17.16;54.48;97858.77;107638;1268;60528;-75
2022/11/09 12:41:14;;;;;;;;;;;;;;;17.82;52.36;97854.89;107635;1270;72210;-75
2022/11/09 12:44:17;;;;;;;;;;;;;;;17.46;53.31;97852.69;107614;1269;68704;-74
2022/11/09 12:47:14;;;;;;;;;;;;;;;17.34;53.65;97852.39;107627;1269;69601;-73
2022/11/09 12:50:03;;;;;;;;;;;;;;;16.95;54.50;97853.98;107608;1273;60577;-73
2022/11/09 12:52:51;;;;;;;;;;;;;;;16.60;55.90;97855.48;107655;1270;60503;-73
2022/11/09 12:55:45;;;;;;;;;;;;;;;16.52;56.01;97853.66;107631;1269;72221;-74
2022/11/09 12:58:34;;;;;;;;;;;;;;;16.43;56.30;97858.18;107634;1268;68547;-74
2022/11/09 13:01:24;;;;;;;;;;;;;;;16.37;56.33;97853.98;107629;1270;69269;-74
2022/11/09 13:04:16;;;;;;;;;;;;;;;15.89;57.66;97848.06;107620;1270;60502;-74
2022/11/09 13:07:06;;;;;;;;;;;;;;;15.92;57.78;97848.84;107631;1269;60513;-73
2022/11/09 13:09:55;;;;;;;;;;;;;;;16.01;57.33;97849.20;107667;1266;72098;-74
2022/11/09 13:12:42;;;;;;;;;;;;;;;15.53;58.79;97848.13;107645;1269;69775;-74
2022/11/09 13:15:31;;;;;;;;;;;;;;;15.42;59.06;97851.02;107609;1270;69154;-73
2022/11/09 13:18:24;;;;;;;;;;;;;;;15.56;58.91;97850.04;107643;1266;60567;-74
2022/11/09 13:21:21;;;;;;;;;;;;;;;15.69;58.42;97848.86;107664;1270;60519;-74